createdAt,value
2022-08-10T00:00:55.782Z,100467.16
2022-08-10T00:03:22.415Z,100459.78
2022-08-10T00:05:52.686Z,100462.63
2022-08-10T00:08:23.676Z,100470.06
2022-08-10T00:10:55.428Z,100465.00
2022-08-10T00:13:23.924Z,100466.03
2022-08-10T00:15:53.460Z,100474.25
2022-08-10T00:18:35.196Z,100472.22
2022-08-10T00:21:04.814Z,100467.53
2022-08-10T00:23:31.251Z,100472.06
2022-08-10T00:25:57.908Z,100465.84
2022-08-10T00:28:24.357Z,100455.28
2022-08-10T00:30:50.908Z,100461.66
2022-08-10T00:33:17.432Z,100465.66
2022-08-10T00:35:44.030Z,100456.94
2022-08-10T00:38:10.686Z,100456.75
2022-08-10T00:40:38.202Z,100454.06
2022-08-10T00:43:06.292Z,100455.56
2022-08-10T00:45:33.423Z,100461.63
2022-08-10T00:47:59.870Z,100450.56
2022-08-10T00:50:26.489Z,100448.19
2022-08-10T00:52:53.257Z,100452.06
2022-08-10T00:55:20.102Z,100451.81
2022-08-10T00:57:47.332Z,100450.53
2022-08-10T01:00:25.643Z,100445.78
2022-08-10T01:02:53.093Z,100449.13
2022-08-10T01:05:20.762Z,100456.19
2022-08-10T01:08:08.128Z,100453.69
2022-08-10T01:10:43.179Z,100451.50
2022-08-10T01:13:16.694Z,100446.63
2022-08-10T01:15:54.106Z,100448.78
2022-08-10T01:18:39.699Z,100458.53
2022-08-10T01:21:35.231Z,100445.75
2022-08-10T01:24:13.991Z,100445.94
2022-08-10T01:27:07.255Z,100451.25
2022-08-10T01:29:58.661Z,100450.41
2022-08-10T01:32:40.740Z,100443.69
2022-08-10T01:35:31.031Z,100442.66
2022-08-10T01:38:09.014Z,100435.97
2022-08-10T01:40:41.796Z,100444.03
2022-08-10T01:43:12.542Z,100446.34
2022-08-10T01:45:44.726Z,100453.38
2022-08-10T01:48:31.093Z,100450.34
2022-08-10T01:51:09.307Z,100448.00
2022-08-10T01:53:42.887Z,100447.19
2022-08-10T01:56:13.057Z,100449.06
2022-08-10T01:58:40.740Z,100459.72
2022-08-10T02:01:10.826Z,100457.72
2022-08-10T02:04:03.530Z,100456.63
2022-08-10T02:06:33.964Z,100455.97
2022-08-10T02:09:06.402Z,100455.13
2022-08-10T02:12:06.794Z,100453.88
2022-08-10T02:14:33.472Z,100455.56
2022-08-10T02:17:05.360Z,100455.94
2022-08-10T02:19:35.392Z,100454.88
2022-08-10T02:22:35.670Z,100459.88
2022-08-10T02:24:50.770Z,100453.88
2022-08-10T02:27:21.639Z,100455.88
2022-08-10T02:29:49.107Z,100456.56
2022-08-10T02:32:26.933Z,100461.97
2022-08-10T02:35:05.939Z,100453.66
2022-08-10T02:37:37.390Z,100460.78
2022-08-10T02:40:04.596Z,100454.06
2022-08-10T02:45:20.853Z,100468.47
2022-08-10T02:45:47.716Z,100465.19
2022-08-10T02:48:21.472Z,100471.72
2022-08-10T02:50:55.440Z,100469.88
2022-08-10T02:53:51.626Z,100463.59
2022-08-10T02:56:47.935Z,100467.75
2022-08-10T02:59:20.217Z,100464.38
2022-08-10T03:01:49.869Z,100466.66
2022-08-10T03:04:20.757Z,100464.75
2022-08-10T03:07:11.511Z,100455.16
2022-08-10T03:09:40.780Z,100461.19
2022-08-10T03:12:34.811Z,100463.84
2022-08-10T03:14:59.837Z,100462.63
2022-08-10T03:17:29.294Z,100461.75
2022-08-10T03:20:33.771Z,100465.88
2022-08-10T03:22:46.223Z,100454.72
2022-08-10T03:25:13.987Z,100456.53
2022-08-10T03:27:42.617Z,100467.25
2022-08-10T03:30:31.688Z,100462.59
2022-08-10T03:32:57.479Z,100469.19
2022-08-10T03:35:24.992Z,100460.66
2022-08-10T03:37:51.489Z,100457.28
2022-08-10T03:40:44.967Z,100473.56
2022-08-10T03:43:23.984Z,100460.25
2022-08-10T03:45:55.707Z,100454.75
2022-08-10T03:48:42.436Z,100456.66
2022-08-10T03:51:11.843Z,100458.19
2022-08-10T03:54:04.307Z,100454.91
2022-08-10T03:56:28.711Z,100457.00
2022-08-10T03:58:58.460Z,100457.97
2022-08-10T04:02:52.547Z,100449.69
2022-08-10T04:04:13.888Z,100455.13
2022-08-10T04:06:41.147Z,100460.19
2022-08-10T04:09:07.643Z,100463.25
2022-08-10T04:11:34.119Z,100463.59
2022-08-10T04:14:00.567Z,100468.78
2022-08-10T04:16:27.003Z,100471.22
2022-08-10T04:18:53.409Z,100472.44
2022-08-10T04:21:31.329Z,100477.28
2022-08-10T04:24:00.402Z,100474.78
2022-08-10T04:26:27.024Z,100466.66
2022-08-10T04:28:53.775Z,100474.13
2022-08-10T04:31:22.134Z,100478.56
2022-08-10T04:33:50.863Z,100478.97
2022-08-10T04:36:20.445Z,100470.78
2022-08-10T04:38:49.960Z,100489.47
2022-08-10T04:41:16.780Z,100477.00
2022-08-10T04:43:43.552Z,100481.06
2022-08-10T04:46:13.990Z,100478.22
2022-08-10T04:49:01.895Z,100475.13
2022-08-10T04:51:28.583Z,100473.53
2022-08-10T04:54:05.946Z,100478.28
2022-08-10T04:56:38.643Z,100471.03
2022-08-10T04:59:10.661Z,100482.13
2022-08-10T05:02:27.925Z,100472.75
2022-08-10T05:04:36.815Z,100475.25
2022-08-10T05:07:10.116Z,100479.34
2022-08-10T05:10:02.393Z,100474.44
2022-08-10T05:12:24.973Z,100483.41
2022-08-10T05:14:52.166Z,100497.31
2022-08-10T05:17:19.890Z,100487.69
2022-08-10T05:20:03.337Z,100488.69
2022-08-10T05:22:34.291Z,100490.38
2022-08-10T05:25:00.904Z,100486.91
2022-08-10T05:27:27.347Z,100481.03
2022-08-10T05:30:01.238Z,100484.69
2022-08-10T05:32:29.544Z,100483.81
2022-08-10T05:34:56.044Z,100493.53
2022-08-10T05:38:09.384Z,100476.63
2022-08-10T05:40:10.697Z,100481.38
2022-08-10T05:42:37.417Z,100480.41
2022-08-10T05:45:04.439Z,100474.94
2022-08-10T05:48:42.151Z,100478.66
2022-08-10T05:50:21.136Z,100484.97
2022-08-10T05:52:47.979Z,100483.84
2022-08-10T05:55:14.691Z,100487.63
2022-08-10T05:57:44.498Z,100491.78
2022-08-10T06:00:37.348Z,100493.31
2022-08-10T06:03:05.298Z,100488.28
2022-08-10T06:05:36.597Z,100492.53
2022-08-10T06:08:12.772Z,100489.91
2022-08-10T06:12:24.048Z,100492.03
2022-08-10T06:14:12.619Z,100501.16
2022-08-10T06:16:35.082Z,100498.47
2022-08-10T06:19:03.386Z,100504.56
2022-08-10T06:21:31.944Z,100502.13
2022-08-10T06:24:00.199Z,100491.50
2022-08-10T06:26:26.635Z,100494.47
2022-08-10T06:29:03.766Z,100498.06
2022-08-10T06:31:47.189Z,100495.19
2022-08-10T06:34:19.196Z,100493.41
2022-08-10T06:36:46.760Z,100496.25
2022-08-10T06:39:32.478Z,100499.50
2022-08-10T06:42:16.676Z,100499.91
2022-08-10T06:45:05.974Z,100497.97
2022-08-10T06:47:55.451Z,100497.00
2022-08-10T06:50:44.585Z,100503.63
2022-08-10T06:53:17.602Z,100494.94
2022-08-10T06:55:55.142Z,100506.59
2022-08-10T06:58:27.142Z,100502.22
2022-08-10T07:00:56.177Z,100507.63
2022-08-10T07:03:31.411Z,100507.31
2022-08-10T07:06:00.420Z,100513.53
2022-08-10T07:08:31.488Z,100502.97
2022-08-10T07:10:58.293Z,100499.44
2022-08-10T07:14:16.084Z,100507.00
2022-08-10T07:16:14.452Z,100504.63
2022-08-10T07:18:42.731Z,100502.78
2022-08-10T07:21:11.807Z,100493.72
2022-08-10T07:23:59.770Z,100505.31
2022-08-10T07:26:28.744Z,100498.63
2022-08-10T07:28:56.531Z,100498.09
2022-08-10T07:31:54.363Z,100497.75
2022-08-10T07:34:14.116Z,100498.75
2022-08-10T07:37:06.905Z,100495.53
2022-08-10T07:39:57.920Z,100487.97
2022-08-10T07:42:31.150Z,100493.78
2022-08-10T07:44:58.231Z,100499.84
2022-08-10T07:47:53.241Z,100501.94
2022-08-10T07:50:21.303Z,100490.50
2022-08-10T07:52:49.504Z,100497.38
2022-08-10T07:56:04.866Z,100494.31
2022-08-10T07:58:07.532Z,100502.72
2022-08-10T08:00:35.088Z,100506.38
2022-08-10T08:03:03.650Z,100499.94
2022-08-10T08:06:02.935Z,100502.59
2022-08-10T08:08:21.408Z,100505.22
2022-08-10T08:10:48.448Z,100504.53
2022-08-10T08:13:16.771Z,100499.53
2022-08-10T08:16:20.164Z,100498.28
2022-08-10T08:18:31.990Z,100491.34
2022-08-10T08:21:12.670Z,100495.69
2022-08-10T08:24:30.441Z,100498.84
2022-08-10T08:26:39.210Z,100485.94
2022-08-10T08:29:08.518Z,100488.94
2022-08-10T08:31:36.948Z,100490.25
2022-08-10T08:34:22.543Z,100487.09
2022-08-10T08:36:51.868Z,100490.75
2022-08-10T08:39:20.434Z,100496.50
2022-08-10T08:41:59.459Z,100496.44
2022-08-10T08:44:35.233Z,100491.97
2022-08-10T08:48:03.377Z,100494.03
2022-08-10T08:50:19.868Z,100482.50
2022-08-10T08:54:02.040Z,100478.03
2022-08-10T08:56:25.157Z,100480.25
2022-08-10T08:59:29.590Z,100479.09
2022-08-10T09:02:18.293Z,100466.78
2022-08-10T09:04:57.531Z,100478.09
2022-08-10T09:08:01.694Z,100474.53
2022-08-10T09:10:54.213Z,100462.97
2022-08-10T09:13:29.396Z,100470.94
2022-08-10T09:16:15.357Z,100467.53
2022-08-10T09:19:08.768Z,100459.09
2022-08-10T09:22:18.487Z,100458.75
2022-08-10T09:24:53.975Z,100452.38
2022-08-10T09:27:43.388Z,100455.56
2022-08-10T09:30:12.523Z,100451.06
2022-08-10T09:36:14.519Z,100448.63
2022-08-10T09:36:24.248Z,100447.03
2022-08-10T09:38:48.841Z,100445.41
2022-08-10T09:41:39.154Z,100434.19
2022-08-10T09:44:15.226Z,100435.28
2022-08-10T09:46:49.420Z,100423.88
2022-08-10T09:49:25.852Z,100421.00
2022-08-10T09:52:24.739Z,100427.72
2022-08-10T09:54:53.904Z,100424.63
2022-08-10T09:57:44.205Z,100415.06
2022-08-10T10:00:18.341Z,100408.25
2022-08-10T10:03:12.341Z,100410.56
2022-08-10T10:05:53.808Z,100406.22
2022-08-10T10:08:58.390Z,100405.38
2022-08-10T10:11:52.784Z,100395.97
2022-08-10T10:15:09.589Z,100397.00
2022-08-10T10:18:02.469Z,100391.97
2022-08-10T10:20:49.798Z,100395.72
2022-08-10T10:23:51.404Z,100399.66
2022-08-10T10:26:47.686Z,100386.06
2022-08-10T10:29:57.091Z,100389.81
2022-08-10T10:33:02.595Z,100381.44
2022-08-10T10:35:44.157Z,100388.31
2022-08-10T10:38:13.219Z,100378.69
2022-08-10T10:40:55.115Z,100380.09
2022-08-10T10:43:28.266Z,100368.16
2022-08-10T10:46:23.288Z,100381.50
2022-08-10T10:49:12.022Z,100372.72
2022-08-10T10:52:18.629Z,100365.16
2022-08-10T10:54:57.024Z,100360.25
2022-08-10T10:58:02.612Z,100359.94
2022-08-10T11:00:50.134Z,100361.00
2022-08-10T11:03:35.012Z,100362.22
2022-08-10T11:06:18.519Z,100355.66
2022-08-10T11:08:54.015Z,100347.03
2022-08-10T11:12:01.563Z,100349.03
2022-08-10T11:14:40.265Z,100355.09
2022-08-10T11:17:16.582Z,100354.66
2022-08-10T11:20:04.118Z,100350.66
2022-08-10T11:22:42.426Z,100336.72
2022-08-10T11:25:16.196Z,100342.28
2022-08-10T11:27:52.456Z,100335.03
2022-08-10T11:30:25.827Z,100327.41
2022-08-10T11:33:30.834Z,100324.28
2022-08-10T11:36:03.775Z,100328.19
2022-08-10T11:39:03.992Z,100330.31
2022-08-10T11:42:09.206Z,100321.13
2022-08-10T11:44:57.076Z,100329.75
2022-08-10T11:47:32.524Z,100321.72
2022-08-10T11:50:11.286Z,100318.44
2022-08-10T11:53:08.315Z,100314.97
2022-08-10T11:55:35.088Z,100319.13
2022-08-10T11:58:27.347Z,100322.78
2022-08-10T12:01:02.224Z,100315.34
2022-08-10T12:03:34.839Z,100312.53
2022-08-10T12:06:04.291Z,100308.06
2022-08-10T12:10:02.675Z,100297.09
2022-08-10T12:11:25.134Z,100283.84
2022-08-10T12:14:23.268Z,100289.56
2022-08-10T12:17:01.976Z,100288.13
2022-08-10T12:20:02.611Z,100288.59
2022-08-10T12:22:57.113Z,100287.69
2022-08-10T12:25:55.565Z,100288.63
2022-08-10T12:28:33.262Z,100291.28
2022-08-10T12:31:17.717Z,100287.94
2022-08-10T12:34:01.786Z,100287.03
2022-08-10T12:36:37.855Z,100278.25
2022-08-10T12:39:16.420Z,100270.44
2022-08-10T12:42:06.732Z,100273.00
2022-08-10T12:44:42.383Z,100267.00
2022-08-10T12:47:29.836Z,100268.53
2022-08-10T12:50:33.016Z,100260.94
2022-08-10T12:53:18.015Z,100253.25
2022-08-10T12:55:48.046Z,100245.03
2022-08-10T12:58:57.431Z,100245.66
2022-08-10T13:01:16.226Z,100252.19
2022-08-10T13:04:21.454Z,100251.75
2022-08-10T13:06:38.467Z,100244.97
2022-08-10T13:09:13.047Z,100237.50
2022-08-10T13:12:36.393Z,100245.94
2022-08-10T13:14:54.364Z,100235.38
2022-08-10T13:17:42.711Z,100234.44
2022-08-10T13:20:22.424Z,100227.66
2022-08-10T13:22:51.404Z,100226.63
2022-08-10T13:25:23.037Z,100213.25
2022-08-10T13:28:00.644Z,100214.53
2022-08-10T13:30:40.105Z,100208.31
2022-08-10T13:33:10.862Z,100211.94
2022-08-10T13:35:38.198Z,100194.56
2022-08-10T13:38:06.940Z,100191.56
2022-08-10T13:40:36.005Z,100188.38
2022-08-10T13:43:06.809Z,100190.63
2022-08-10T13:45:34.201Z,100193.56
2022-08-10T13:48:11.290Z,100182.88
2022-08-10T13:50:40.061Z,100180.41
2022-08-10T13:53:14.741Z,100172.34
2022-08-10T13:55:53.386Z,100171.28
2022-08-10T13:58:23.485Z,100169.97
2022-08-10T14:00:50.034Z,100176.38
2022-08-10T14:03:17.653Z,100184.53
2022-08-10T14:05:50.717Z,100180.16
2022-08-10T14:08:25.111Z,100180.16
2022-08-10T14:11:08.507Z,100165.94
2022-08-10T14:13:58.919Z,100174.22
2022-08-10T14:16:26.501Z,100171.94
2022-08-10T14:18:55.372Z,100163.88
2022-08-10T14:21:22.148Z,100159.97
2022-08-10T14:23:53.039Z,100154.91
2022-08-10T14:26:31.207Z,100160.09
2022-08-10T14:29:05.420Z,100147.19
2022-08-10T14:31:35.954Z,100145.81
2022-08-10T14:34:04.630Z,100149.25
2022-08-10T14:36:39.782Z,100148.34
2022-08-10T14:39:07.136Z,100155.75
2022-08-10T14:42:03.318Z,100143.53
2022-08-10T14:44:27.730Z,100151.53
2022-08-10T14:46:57.736Z,100143.03
2022-08-10T14:49:27.168Z,100130.56
2022-08-10T14:52:00.949Z,100140.03
2022-08-10T14:54:29.776Z,100141.31
2022-08-10T14:57:11.438Z,100131.81
2022-08-10T15:00:24.494Z,100138.16
2022-08-10T15:02:40.452Z,100142.84
2022-08-10T15:05:18.194Z,100126.66
2022-08-10T15:07:58.902Z,100129.25
2022-08-10T15:10:27.932Z,100131.81
2022-08-10T15:12:55.435Z,100128.81
2022-08-10T15:15:28.870Z,100134.53
2022-08-10T15:17:59.157Z,100128.94
2022-08-10T15:20:29.391Z,100134.59
2022-08-10T15:23:00.982Z,100132.34
2022-08-10T15:25:29.042Z,100128.19
2022-08-10T15:28:08.142Z,100133.63
2022-08-10T15:30:42.465Z,100123.19
2022-08-10T15:34:03.463Z,100119.28
2022-08-10T15:36:41.954Z,100108.25
2022-08-10T15:40:25.692Z,100109.31
2022-08-10T15:42:18.884Z,100101.94
2022-08-10T15:44:47.298Z,100099.59
2022-08-10T15:47:24.366Z,100105.69
2022-08-10T15:50:12.740Z,100094.22
2022-08-10T15:53:00.717Z,100094.66
2022-08-10T15:55:43.219Z,100092.78
2022-08-10T15:58:38.794Z,100104.56
2022-08-10T16:02:14.618Z,100098.13
2022-08-10T16:04:19.287Z,100093.38
2022-08-10T16:06:55.531Z,100088.38
2022-08-10T16:10:22.803Z,100083.38
2022-08-10T16:12:29.239Z,100078.63
2022-08-10T16:14:59.555Z,100084.47
2022-08-10T16:17:28.002Z,100084.09
2022-08-10T16:19:57.677Z,100085.84
2022-08-10T16:22:35.699Z,100076.94
2022-08-10T16:25:12.984Z,100074.59
2022-08-10T16:27:41.086Z,100065.22
2022-08-10T16:30:07.977Z,100067.75
2022-08-10T16:32:35.792Z,100060.84
2022-08-10T16:35:08.912Z,100061.69
2022-08-10T16:37:57.166Z,100068.38
2022-08-10T16:40:27.752Z,100070.28
2022-08-10T16:42:56.058Z,100062.38
2022-08-10T16:45:30.509Z,100066.13
2022-08-10T16:47:58.049Z,100071.34
2022-08-10T16:50:30.895Z,100070.28
2022-08-10T16:53:01.961Z,100076.16
2022-08-10T16:55:48.375Z,100078.47
2022-08-10T16:58:25.199Z,100068.28
2022-08-10T17:00:53.836Z,100073.72
2022-08-10T17:04:06.364Z,100066.03
2022-08-10T17:06:41.049Z,100067.50
2022-08-10T17:09:15.879Z,100062.56
2022-08-10T17:11:46.886Z,100062.38
2022-08-10T17:14:13.756Z,100066.38
2022-08-10T17:16:50.944Z,100065.91
2022-08-10T17:19:21.398Z,100061.94
2022-08-10T17:22:02.002Z,100052.63
2022-08-10T17:24:34.180Z,100073.03
2022-08-10T17:28:04.534Z,100055.97
2022-08-10T17:30:03.937Z,100067.88
2022-08-10T17:32:44.490Z,100065.97
2022-08-10T17:35:14.038Z,100062.25
2022-08-10T17:37:53.278Z,100061.44
2022-08-10T17:40:23.840Z,100068.16
2022-08-10T17:42:51.879Z,100068.59
2022-08-10T17:45:48.800Z,100071.50
2022-08-10T17:48:17.910Z,100063.59
2022-08-10T17:50:49.704Z,100064.88
2022-08-10T17:53:18.782Z,100060.69
2022-08-10T17:55:48.154Z,100071.38
2022-08-10T17:58:20.177Z,100061.81
2022-08-10T18:00:54.609Z,100067.00
2022-08-10T18:03:28.324Z,100072.66
2022-08-10T18:06:06.240Z,100066.63
2022-08-10T18:08:39.288Z,100072.84
2022-08-10T18:11:11.168Z,100073.50
2022-08-10T18:13:55.219Z,100070.19
2022-08-10T18:16:26.151Z,100078.31
2022-08-10T18:18:58.354Z,100088.16
2022-08-10T18:21:30.891Z,100080.69
2022-08-10T18:24:11.844Z,100079.44
2022-08-10T18:26:44.584Z,100085.31
2022-08-10T18:29:19.410Z,100093.03
2022-08-10T18:31:48.110Z,100084.72
2022-08-10T18:34:20.857Z,100093.03
2022-08-10T18:36:49.832Z,100089.91
2022-08-10T18:39:22.816Z,100085.16
2022-08-10T18:42:00.617Z,100095.38
2022-08-10T18:44:35.992Z,100097.69
2022-08-10T18:47:12.583Z,100099.75
2022-08-10T18:49:38.949Z,100100.41
2022-08-10T18:52:12.271Z,100109.38
2022-08-10T18:54:49.630Z,100103.97
2022-08-10T18:57:36.011Z,100111.50
2022-08-10T19:00:09.351Z,100122.75
2022-08-10T19:02:57.433Z,100122.38
2022-08-10T19:05:46.422Z,100115.47
2022-08-10T19:08:33.294Z,100111.53
2022-08-10T19:11:40.713Z,100117.78
2022-08-10T19:14:18.152Z,100125.69
2022-08-10T19:16:58.088Z,100118.03
2022-08-10T19:19:45.952Z,100120.50
2022-08-10T19:22:26.750Z,100121.53
2022-08-10T19:25:01.299Z,100127.34
2022-08-10T19:27:49.696Z,100129.88
2022-08-10T19:30:18.236Z,100134.44
2022-08-10T19:33:29.032Z,100129.03
2022-08-10T19:36:32.654Z,100131.09
2022-08-10T19:39:17.798Z,100130.28
2022-08-10T19:41:54.465Z,100127.34
2022-08-10T19:44:52.090Z,100138.19
2022-08-10T19:47:34.031Z,100140.47
2022-08-10T19:53:39.441Z,100136.09
2022-08-10T19:56:34.600Z,100137.34
2022-08-10T19:59:10.619Z,100143.16
2022-08-10T20:01:54.273Z,100141.06
2022-08-10T20:04:33.204Z,100149.34
2022-08-10T20:07:13.518Z,100148.69
2022-08-10T20:09:48.778Z,100146.75
2022-08-10T20:12:54.340Z,100144.63
2022-08-10T20:15:41.971Z,100149.75
2022-08-10T20:18:36.604Z,100153.47
2022-08-10T20:21:19.259Z,100168.75
2022-08-10T20:24:28.727Z,100166.41
2022-08-10T20:27:18.321Z,100160.56
2022-08-10T20:29:59.503Z,100169.84
2022-08-10T20:32:35.349Z,100165.50
2022-08-10T20:35:09.285Z,100162.16
2022-08-10T20:38:04.048Z,100166.25
2022-08-10T20:40:46.906Z,100165.66
2022-08-10T20:43:13.284Z,100172.47
2022-08-10T20:46:07.571Z,100171.44
2022-08-10T20:48:47.236Z,100167.00
2022-08-10T20:51:19.043Z,100175.88
2022-08-10T20:53:51.784Z,100169.28
2022-08-10T20:56:37.051Z,100189.78
2022-08-10T20:59:33.440Z,100184.91
2022-08-10T21:02:31.235Z,100183.88
2022-08-10T21:05:12.063Z,100174.88
2022-08-10T21:08:02.913Z,100176.13
2022-08-10T21:10:51.963Z,100175.81
2022-08-10T21:13:51.035Z,100168.63
2022-08-10T21:16:34.466Z,100174.09
2022-08-10T21:19:33.437Z,100174.28
2022-08-10T21:22:16.628Z,100175.25
2022-08-10T21:25:01.760Z,100160.84
2022-08-10T21:27:59.573Z,100176.22
2022-08-10T21:30:51.104Z,100173.66
2022-08-10T21:33:33.115Z,100164.00
2022-08-10T21:36:23.531Z,100160.34
2022-08-10T21:39:06.866Z,100166.59
2022-08-10T21:42:07.358Z,100165.28
2022-08-10T21:45:59.384Z,100175.50
2022-08-10T21:49:22.844Z,100174.63
2022-08-10T21:52:08.058Z,100169.44
2022-08-10T21:55:03.402Z,100168.78
2022-08-10T21:58:07.811Z,100170.66
2022-08-10T22:00:58.614Z,100166.09
2022-08-10T22:03:43.673Z,100169.28
2022-08-10T22:06:32.572Z,100168.63
2022-08-10T22:09:26.923Z,100159.88
2022-08-10T22:12:24.906Z,100164.44
2022-08-10T22:15:24.219Z,100155.41
2022-08-10T22:18:33.274Z,100167.31
2022-08-10T22:21:46.043Z,100153.13
2022-08-10T22:24:58.703Z,100158.13
2022-08-10T22:27:55.967Z,100158.72
2022-08-10T22:30:57.859Z,100159.34
2022-08-10T22:34:24.668Z,100154.69
2022-08-10T22:37:26.676Z,100166.59
2022-08-10T22:40:23.339Z,100157.31
2022-08-10T22:43:12.381Z,100162.31
2022-08-10T22:46:06.350Z,100161.66
2022-08-10T22:48:59.662Z,100166.56
2022-08-10T22:51:56.159Z,100160.63
2022-08-10T22:55:10.772Z,100172.72
2022-08-10T22:58:05.684Z,100169.53
2022-08-10T23:00:33.118Z,100158.94
2022-08-10T23:03:32.160Z,100163.34
2022-08-10T23:06:13.842Z,100162.63
2022-08-10T23:08:45.337Z,100162.72
2022-08-10T23:11:26.350Z,100161.97
2022-08-10T23:13:57.290Z,100163.41
2022-08-10T23:16:47.085Z,100160.66
2022-08-10T23:19:22.442Z,100158.94
2022-08-10T23:22:04.105Z,100161.03
2022-08-10T23:24:39.910Z,100164.25
2022-08-10T23:27:13.187Z,100165.09
2022-08-10T23:30:09.721Z,100163.13
2022-08-10T23:32:40.693Z,100167.63
2022-08-10T23:36:30.663Z,100161.97
2022-08-10T23:38:01.729Z,100165.31
2022-08-10T23:40:28.767Z,100172.31
2022-08-10T23:42:57.263Z,100166.81
2022-08-10T23:45:27.659Z,100172.88
2022-08-10T23:47:58.572Z,100162.59
2022-08-10T23:50:28.135Z,100169.75
2022-08-10T23:52:58.381Z,100158.69
2022-08-10T23:55:33.932Z,100163.00
2022-08-10T23:58:33.027Z,100158.34
